Qishan — V3NY6 — position and weather

sailwx.info

Track history (hours):
 
Tides and Currents Weather Stations Pressure Air Temp Water Temp Dewpoint Dewpoint Depression Visibility Wind Speed Wind Dir Waves Ship Positions

Qishan

Last reported at 2017-Dec-17 01:17 UTC. Time now 2017-Dec-17 10:03 UTC.
Position N 34°27' E 137°14'.

Length 100 m; draft 6.2 m.

Type: Cargo ship. MMSI: 312445000.

Date/timePositionNaut miles runAvg speedWind from/ knotsBaromVisibWave heightAir tempDewpointWater temp
2017-Dec-17 01:17N 34°27' E 137°14'25 9.0
2017-Dec-16 22:33N 34°35' E 137°42'3 8.0
2017-Dec-16 22:14N 34°35' E 137°45'3 8.8
2017-Dec-16 21:54N 34°35' E 137°49'4 8.4
2017-Dec-16 21:28N 34°35' E 137°53'5 8.2
2017-Dec-16 20:53N 34°34' E 137°59'3 7.7
2017-Dec-16 20:28N 34°34' E 138°03'9 6.5
2017-Dec-16 19:06N 34°33' E 138°14'2 6.3
2017-Dec-16 18:51N 34°33' E 138°16'2 6.5
2017-Dec-16 18:29N 34°33' E 138°18'5 7.4
2017-Dec-16 17:49N 34°33' E 138°24'8 7.8
2017-Dec-16 16:44N 34°34' E 138°35'2 8.3
2017-Dec-16 16:28N 34°34' E 138°37'6 7.9
2017-Dec-16 15:45N 34°34' E 138°44'2 7.7
2017-Dec-16 15:29N 34°34' E 138°47'4 7.1
2017-Dec-16 14:58N 34°34' E 138°51'3 6.6
2017-Dec-16 14:30N 34°33' E 138°55'4 6.8
2017-Dec-16 13:59N 34°34' E 138°59'4 7.2
2017-Dec-16 13:24N 34°36' E 139°03'3 6.6
2017-Dec-16 13:00N 34°38' E 139°06'4 8.3
2017-Dec-16 12:29N 34°41' E 139°10'4 7.3
2017-Dec-16 11:54N 34°44' E 139°13'3 7.8
2017-Dec-16 11:29N 34°46' E 139°16'4 7.6
2017-Dec-16 11:00N 34°49' E 139°19'4 6.9
2017-Dec-16 10:29N 34°50' E 139°23'4 8.9
2017-Dec-16 10:00N 34°49' E 139°28'5 9.1
2017-Dec-16 09:28N 34°48' E 139°34'4 8.9
2017-Dec-16 08:58N 34°49' E 139°39'4 8.5
2017-Dec-16 08:30N 34°50' E 139°44'13 6.9
2017-Dec-16 06:40N 34°54' E 139°59'2 6.0
2017-Dec-16 06:21N 34°55' E 140°01'2 6.3
2017-Dec-16 06:00N 34°56' E 140°03'3 6.5
2017-Dec-16 05:30N 34°58' E 140°07'5 6.2
2017-Dec-16 04:45N 34°60' E 140°11'  
Track history (hours):
 
Tides and Currents Weather Stations Pressure Air Temp Water Temp Dewpoint Dewpoint Depression Visibility Wind Speed Wind Dir Waves Ship Positions

Qishan

Last reported at 2017-Dec-17 01:17 UTC. Time now 2017-Dec-17 10:03 UTC.
Position N 34°27' E 137°14'.

Length 100 m; draft 6.2 m.

Type: Cargo ship. MMSI: 312445000.

Date/timePositionNaut miles runAvg speedWind from/ knotsBaromVisibWave heightAir tempDewpointWater temp
2017-Dec-17 01:17N 34°27' E 137°14'25 9.0
2017-Dec-16 22:33N 34°35' E 137°42'3 8.0
2017-Dec-16 22:14N 34°35' E 137°45'3 8.8
2017-Dec-16 21:54N 34°35' E 137°49'4 8.4
2017-Dec-16 21:28N 34°35' E 137°53'5 8.2
2017-Dec-16 20:53N 34°34' E 137°59'3 7.7
2017-Dec-16 20:28N 34°34' E 138°03'9 6.5
2017-Dec-16 19:06N 34°33' E 138°14'2 6.3
2017-Dec-16 18:51N 34°33' E 138°16'2 6.5
2017-Dec-16 18:29N 34°33' E 138°18'5 7.4
2017-Dec-16 17:49N 34°33' E 138°24'8 7.8
2017-Dec-16 16:44N 34°34' E 138°35'2 8.3
2017-Dec-16 16:28N 34°34' E 138°37'6 7.9
2017-Dec-16 15:45N 34°34' E 138°44'2 7.7
2017-Dec-16 15:29N 34°34' E 138°47'4 7.1
2017-Dec-16 14:58N 34°34' E 138°51'3 6.6
2017-Dec-16 14:30N 34°33' E 138°55'4 6.8
2017-Dec-16 13:59N 34°34' E 138°59'4 7.2
2017-Dec-16 13:24N 34°36' E 139°03'3 6.6
2017-Dec-16 13:00N 34°38' E 139°06'4 8.3
2017-Dec-16 12:29N 34°41' E 139°10'4 7.3
2017-Dec-16 11:54N 34°44' E 139°13'3 7.8
2017-Dec-16 11:29N 34°46' E 139°16'4 7.6
2017-Dec-16 11:00N 34°49' E 139°19'4 6.9
2017-Dec-16 10:29N 34°50' E 139°23'4 8.9
2017-Dec-16 10:00N 34°49' E 139°28'5 9.1
2017-Dec-16 09:28N 34°48' E 139°34'4 8.9
2017-Dec-16 08:58N 34°49' E 139°39'4 8.5
2017-Dec-16 08:30N 34°50' E 139°44'13 6.9
2017-Dec-16 06:40N 34°54' E 139°59'2 6.0
2017-Dec-16 06:21N 34°55' E 140°01'2 6.3
2017-Dec-16 06:00N 34°56' E 140°03'3 6.5
2017-Dec-16 05:30N 34°58' E 140°07'5 6.2
2017-Dec-16 04:45N 34°60' E 140°11'  

Dump ship's entire track history